CheckWX is a tool to help pilots better visualize weather data.  It is not intended as a substitute for an official pre-flight weather briefing.

14:42:26 UTC

ESNS METAR
Skellefteå Airport
Skellefteå, Sweden
Current

22 mins ago

ESNS 201420Z 15006KT 100V200 CAVOK 23/11 Q1013
Observed
May-20 @ 14:20 UTC
Wind
  • 150° at 6 KTS
Visibility
10,000+ meters
Flight Rules
VFR
Cloud Levels
  • Clear skies
Temperature
23°C / 73°F
Dewpoint
11°C / 52°F
Humidity
47%
Altimeter
29.91" Hg
Pressure
1012.92 hPa
Previous

52 mins ago

ESNS 201350Z 13008KT 100V170 9999 FEW046 23/11 Q1013
Observed
May-20 @ 13:50 UTC
Wind
  • 130° at 8 KTS
Visibility
10,000+ meters
Flight Rules
VFR
Cloud Levels
  • Few at 4,600' AGL
Temperature
23°C / 73°F
Dewpoint
11°C / 52°F
Humidity
47%
Altimeter
29.91" Hg
Pressure
1012.92 hPa
Previous

1 hour ago

ESNS 201320Z 15007KT 120V190 9999 FEW046 22/11 Q1013
Observed
May-20 @ 13:20 UTC
Wind
  • 150° at 7 KTS
Visibility
10,000+ meters
Flight Rules
VFR
Cloud Levels
  • Few at 4,600' AGL
Temperature
22°C / 72°F
Dewpoint
11°C / 52°F
Humidity
50%
Altimeter
29.91" Hg
Pressure
1012.92 hPa